Time;durP1;ratioP1;P1;durP2;ratioP2;P2;SDS_P1;SDS_P2;PMS_P1;PMS_P2;Temp;Humidity;BMP_temperature;BMP_pressure;BME280_temperature;BME280_humidity;BME280_pressure;Samples;Min_cycle;Max_cycle;Signal;HPM_P1;HPM_P2
2022/12/29 00:01:46;;;;;;;29.10;26.17;;;;;;;5.65;72.47;95824.97;5094172;28;20204;-74
2022/12/29 00:04:15;;;;;;;29.13;26.33;;;;;;;5.61;72.74;95821.22;5094542;28;20193;-73
2022/12/29 00:06:41;;;;;;;30.27;27.38;;;;;;;5.57;73.09;95836.63;5094289;28;20185;-73
2022/12/29 00:09:08;;;;;;;30.63;27.63;;;;;;;5.57;73.21;95833.88;5093844;28;20196;-73
2022/12/29 00:11:35;;;;;;;30.02;27.13;;;;;;;5.53;73.20;95829.00;5093789;28;20192;-73
2022/12/29 00:16:56;;;;;;;29.73;26.73;;;;;;;5.53;73.36;95826.28;5058520;28;20571;-73
2022/12/29 00:35:58;;;;;;;29.80;26.88;;;;;;;5.58;72.98;95847.25;5093589;28;20338;-73
2022/12/29 00:46:36;;;;;;;29.73;26.83;;;;;;;5.71;72.84;95864.81;5094475;28;20203;-73
2022/12/29 00:51:48;;;;;;;28.75;26.08;;;;;;;5.66;72.66;95859.41;5097277;28;20203;-73
2022/12/29 00:54:15;;;;;;;26.80;24.08;;;;;;;5.65;72.94;95857.81;5097705;28;20189;-73
2022/12/29 00:56:44;;;;;;;25.92;23.40;;;;;;;5.64;72.78;95861.66;5097123;28;20208;-73
2022/12/29 00:59:11;;;;;;;27.73;24.95;;;;;;;5.67;72.53;95853.66;5097737;28;20220;-73
2022/12/29 01:01:40;;;;;;;27.05;24.25;;;;;;;5.67;72.67;95859.13;5097097;28;20197;-73
2022/12/29 01:04:07;;;;;;;30.20;27.13;;;;;;;5.66;72.39;95851.22;5097004;28;20200;-73
2022/12/29 01:06:35;;;;;;;29.92;26.83;;;;;;;5.64;72.50;95846.03;5097146;28;20538;-73
2022/12/29 01:11:46;;;;;;;28.63;25.50;;;;;;;5.55;72.66;95854.16;5096611;28;20188;-73
2022/12/29 01:14:13;;;;;;;30.13;27.15;;;;;;;5.58;72.88;95849.19;5097129;28;20211;-73
2022/12/29 01:16:42;;;;;;;28.85;26.05;;;;;;;5.60;73.17;95849.69;5096918;28;20257;-73
2022/12/29 01:19:08;;;;;;;28.67;25.98;;;;;;;5.63;73.05;95843.59;5096537;28;20216;-73
2022/12/29 01:21:35;;;;;;;27.40;24.70;;;;;;;5.59;73.21;95843.38;5097330;28;20203;-73
2022/12/29 01:24:02;;;;;;;27.60;24.80;;;;;;;5.61;73.28;95845.84;5097127;28;20513;-73
2022/12/29 01:26:28;;;;;;;26.70;24.05;;;;;;;5.58;72.92;95840.97;5096746;28;20207;-73
2022/12/29 01:28:55;;;;;;;25.70;23.25;;;;;;;5.57;73.25;95839.34;5097029;28;20193;-73
2022/12/29 01:31:22;;;;;;;26.75;24.10;;;;;;;5.52;73.03;95843.00;5096634;28;20185;-73
2022/12/29 01:33:50;;;;;;;27.65;24.85;;;;;;;5.52;72.94;95835.59;5096229;28;20195;-73
2022/12/29 01:36:19;;;;;;;28.60;25.80;;;;;;;5.53;73.11;95830.94;5097177;28;20204;-73
2022/12/29 01:38:46;;;;;;;27.80;24.98;;;;;;;5.55;73.42;95823.22;5096069;28;20224;-73
2022/12/29 01:41:15;;;;;;;28.55;25.45;;;;;;;5.55;73.06;95831.44;5096191;28;20204;-72
2022/12/29 01:43:44;;;;;;;27.52;24.85;;;;;;;5.53;73.21;95826.28;5096058;28;20212;-73
2022/12/29 01:46:20;;;;;;;28.38;25.58;;;;;;;5.52;72.90;95826.59;5096574;28;20197;-73
2022/12/29 01:48:50;;;;;;;27.88;24.90;;;;;;;5.50;73.15;95823.31;5096787;28;20257;-73
2022/12/29 01:51:17;;;;;;;28.42;25.52;;;;;;;5.44;73.67;95821.78;5095898;28;20203;-73
2022/12/29 01:53:44;;;;;;;27.98;25.15;;;;;;;5.45;73.46;95816.03;5095038;28;20207;-73
2022/12/29 01:56:13;;;;;;;27.38;24.58;;;;;;;5.43;73.62;95815.50;5096214;28;20192;-72
2022/12/29 01:58:43;;;;;;;27.75;25.00;;;;;;;5.45;73.83;95818.78;5095617;28;20538;-72
2022/12/29 02:01:09;;;;;;;25.02;22.63;;;;;;;5.45;73.50;95815.22;5096204;28;20212;-72
2022/12/29 02:03:37;;;;;;;25.38;22.85;;;;;;;5.42;73.78;95818.56;5096009;28;20558;-72
2022/12/29 02:06:09;;;;;;;25.08;22.67;;;;;;;5.44;73.58;95808.91;5096171;28;20200;-72
2022/12/29 02:08:36;;;;;;;25.83;23.38;;;;;;;5.46;74.05;95800.44;5095907;28;20184;-72
2022/12/29 02:11:04;;;;;;;25.50;23.00;;;;;;;5.49;73.73;95800.63;5095997;28;20201;-72
2022/12/29 02:13:31;;;;;;;26.40;23.88;;;;;;;5.48;73.79;95807.22;5095940;28;20184;-73
2022/12/29 02:16:03;;;;;;;25.27;22.88;;;;;;;5.51;73.89;95803.84;5095899;28;20203;-73
2022/12/29 02:18:39;;;;;;;23.75;21.55;;;;;;;5.52;73.70;95799.22;5095841;28;20278;-73
2022/12/29 02:21:58;;;;;;;25.20;22.80;;;;;;;5.50;73.81;95802.25;5095972;28;20195;-73
2022/12/29 02:25:10;;;;;;;24.77;22.52;;;;;;;5.49;73.66;95797.91;5018388;28;20206;-74
2022/12/29 02:27:52;;;;;;;25.98;23.48;;;;;;;5.48;73.82;95803.66;5017735;28;20186;-73
2022/12/29 02:30:48;;;;;;;24.33;22.10;;;;;;;5.46;73.58;95797.69;5094034;28;20210;-73
2022/12/29 02:33:23;;;;;;;23.90;21.67;;;;;;;5.45;74.15;95807.03;5049503;28;20204;-73
2022/12/29 02:35:55;;;;;;;24.98;22.48;;;;;;;5.46;74.00;95800.44;5094952;28;20517;-73
2022/12/29 02:38:46;;;;;;;24.35;22.00;;;;;;;5.41;73.73;95805.97;5095418;28;20246;-73
2022/12/29 02:41:18;;;;;;;24.25;21.95;;;;;;;5.41;73.75;95806.81;5094683;28;20236;-73
2022/12/29 02:43:50;;;;;;;25.33;22.83;;;;;;;5.44;73.84;95810.84;5095016;28;20204;-73
2022/12/29 02:46:23;;;;;;;23.67;21.38;;;;;;;5.41;73.67;95809.53;5095907;28;20189;-74
2022/12/29 02:48:55;;;;;;;21.98;20.00;;;;;;;5.40;73.44;95812.56;5094979;28;20234;-73
2022/12/29 02:51:26;;;;;;;24.65;22.33;;;;;;;5.34;73.80;95806.41;5094870;28;20193;-73
2022/12/29 02:56:37;;;;;;;22.08;19.90;;;;;;;5.34;74.29;95803.66;5095350;28;20570;-73
2022/12/29 02:59:04;;;;;;;22.67;20.58;;;;;;;5.40;73.91;95801.63;5095058;28;20211;-74
2022/12/29 03:02:16;;;;;;;22.52;20.38;;;;;;;5.37;73.57;95802.22;5095157;28;20215;-74
2022/12/29 03:04:35;;;;;;;23.63;21.38;;;;;;;5.39;73.58;95792.59;5094058;28;20204;-73
2022/12/29 03:07:07;;;;;;;22.98;20.83;;;;;;;5.42;74.14;95783.81;5094885;28;20204;-73
2022/12/29 03:09:38;;;;;;;22.77;20.58;;;;;;;5.44;73.65;95786.22;5094483;28;20549;-73
2022/12/29 03:12:24;;;;;;;23.27;21.10;;;;;;;5.45;73.46;95790.59;5095561;28;20197;-73
2022/12/29 03:17:50;;;;;;;23.67;21.48;;;;;;;5.43;73.40;95777.22;5094351;28;20192;-73
2022/12/29 03:20:21;;;;;;;22.92;20.77;;;;;;;5.44;73.66;95778.81;5094740;28;20230;-73
2022/12/29 03:22:49;;;;;;;23.70;21.60;;;;;;;5.43;73.34;95773.66;5094317;28;20200;-73
2022/12/29 03:25:18;;;;;;;22.83;20.63;;;;;;;5.35;73.69;95779.84;5094247;28;20199;-73
2022/12/29 03:27:49;;;;;;;23.25;21.15;;;;;;;5.29;73.61;95781.84;5094327;28;20208;-73
2022/12/29 03:30:16;;;;;;;23.75;21.55;;;;;;;5.24;73.79;95780.03;5094343;28;20196;-73
2022/12/29 03:32:47;;;;;;;23.60;21.52;;;;;;;5.18;74.05;95783.16;5094444;28;20238;-73
2022/12/29 03:35:16;;;;;;;23.63;21.48;;;;;;;5.14;74.53;95785.69;5095317;28;20199;-73
2022/12/29 03:37:45;;;;;;;24.42;22.23;;;;;;;5.12;74.37;95785.19;5094443;28;20196;-73
2022/12/29 03:40:11;;;;;;;22.77;20.88;;;;;;;5.07;74.67;95786.06;5094650;28;20603;-72
2022/12/29 03:42:39;;;;;;;23.73;21.63;;;;;;;5.05;74.72;95782.03;5095054;28;20196;-72
2022/12/29 03:45:08;;;;;;;23.77;21.50;;;;;;;5.03;74.33;95786.97;5095255;28;20189;-72
2022/12/29 03:47:35;;;;;;;24.10;21.90;;;;;;;4.99;74.56;95784.03;5095276;28;20207;-72
2022/12/29 03:50:03;;;;;;;23.58;21.48;;;;;;;4.94;74.40;95791.50;5094250;28;20184;-72
2022/12/29 03:52:30;;;;;;;23.17;21.02;;;;;;;4.89;74.73;95789.66;5094952;28;20184;-72
2022/12/29 03:54:56;;;;;;;22.50;20.55;;;;;;;4.87;75.14;95797.38;5095436;28;20204;-72
2022/12/29 03:57:23;;;;;;;23.08;20.95;;;;;;;4.82;75.20;95797.44;5095332;28;20192;-72
2022/12/29 03:59:50;;;;;;;21.98;19.98;;;;;;;4.82;75.05;95803.69;5093906;28;20686;-72
2022/12/29 04:02:17;;;;;;;22.48;20.45;;;;;;;4.82;74.88;95802.91;5094829;28;20200;-73
2022/12/29 04:04:43;;;;;;;22.20;20.20;;;;;;;4.82;75.35;95800.97;5094400;28;20265;-73
2022/12/29 04:07:11;;;;;;;27.08;24.67;;;;;;;4.85;74.93;95809.69;5094292;28;20192;-73
2022/12/29 04:09:38;;;;;;;32.80;30.00;;;;;;;4.73;74.16;95818.38;5094122;28;20192;-73
2022/12/29 04:12:05;;;;;;;29.42;26.95;;;;;;;4.58;74.35;95808.47;5094275;28;20267;-73
2022/12/29 04:14:32;;;;;;;27.77;25.48;;;;;;;4.49;74.35;95805.59;5094496;28;20254;-72
2022/12/29 04:16:58;;;;;;;26.77;24.52;;;;;;;4.49;74.43;95804.78;5096710;28;20191;-72
2022/12/29 04:19:25;;;;;;;27.13;24.63;;;;;;;4.47;74.64;95807.81;5098120;28;20208;-72
2022/12/29 04:21:52;;;;;;;27.10;24.73;;;;;;;4.46;74.92;95803.44;5098516;28;20581;-72
2022/12/29 04:24:20;;;;;;;26.60;24.30;;;;;;;4.47;74.82;95804.28;5098103;28;20678;-72
2022/12/29 04:26:47;;;;;;;23.55;21.50;;;;;;;4.46;74.99;95802.63;5098531;28;20185;-72
2022/12/29 04:29:14;;;;;;;23.15;21.02;;;;;;;4.45;75.56;95801.84;5098643;28;20197;-72
2022/12/29 04:31:40;;;;;;;25.70;23.60;;;;;;;4.43;75.45;95808.69;5097460;28;20208;-72
2022/12/29 04:34:07;;;;;;;25.70;23.30;;;;;;;4.39;74.93;95813.13;5097996;28;20196;-72
2022/12/29 04:36:34;;;;;;;25.33;23.23;;;;;;;4.23;73.86;95818.00;5098302;28;20250;-72
2022/12/29 04:39:01;;;;;;;28.30;25.80;;;;;;;4.06;74.31;95822.03;5097271;28;20197;-71
2022/12/29 04:41:29;;;;;;;26.42;24.13;;;;;;;4.06;74.67;95830.22;5097354;28;20193;-71
2022/12/29 04:43:56;;;;;;;27.83;25.25;;;;;;;4.10;74.81;95834.00;5097444;28;20192;-72
2022/12/29 04:46:23;;;;;;;26.80;24.40;;;;;;;4.06;74.45;95832.13;5098433;28;20184;-72
2022/12/29 04:48:49;;;;;;;24.67;22.48;;;;;;;4.03;75.07;95830.81;5098059;28;20484;-72
2022/12/29 04:51:16;;;;;;;25.73;23.42;;;;;;;4.05;75.19;95838.72;5097690;28;20258;-72
2022/12/29 04:53:43;;;;;;;25.35;23.15;;;;;;;4.09;75.18;95842.47;5097932;28;20553;-72
2022/12/29 04:56:10;;;;;;;25.52;23.42;;;;;;;4.10;75.36;95844.09;5096999;28;20200;-73
2022/12/29 04:58:38;;;;;;;25.50;23.23;;;;;;;4.15;75.44;95845.97;5098182;28;20188;-73
2022/12/29 05:01:05;;;;;;;23.92;21.83;;;;;;;4.21;75.30;95845.63;5097352;28;20273;-72
2022/12/29 05:03:32;;;;;;;25.35;23.15;;;;;;;4.29;75.43;95849.59;5097266;28;20192;-73
2022/12/29 05:05:58;;;;;;;25.70;23.40;;;;;;;4.34;75.34;95849.53;5097745;28;20242;-73
2022/12/29 05:08:26;;;;;;;25.33;22.98;;;;;;;4.36;75.24;95841.84;5097998;28;20253;-73
2022/12/29 05:10:52;;;;;;;24.40;22.23;;;;;;;4.38;75.44;95852.47;5097888;28;20181;-73
2022/12/29 05:13:19;;;;;;;25.88;23.55;;;;;;;4.38;75.09;95847.00;5097274;28;20261;-73
2022/12/29 05:15:50;;;;;;;26.05;23.63;;;;;;;4.40;75.22;95847.53;5096526;28;20569;-73
2022/12/29 05:18:17;;;;;;;28.42;25.92;;;;;;;4.34;75.21;95850.34;5097703;28;20185;-73
2022/12/29 05:20:44;;;;;;;25.92;23.75;;;;;;;4.35;75.46;95849.22;5098017;28;20208;-73
2022/12/29 05:23:15;;;;;;;27.85;25.25;;;;;;;4.40;75.24;95847.53;5096473;28;20260;-73
2022/12/29 05:25:42;;;;;;;25.08;22.67;;;;;;;4.41;75.08;95840.97;5096410;28;20581;-73
2022/12/29 05:28:08;;;;;;;22.48;20.48;;;;;;;4.41;75.18;95843.69;5096523;28;20200;-73
2022/12/29 05:30:35;;;;;;;21.92;20.02;;;;;;;4.41;75.05;95836.31;5097312;28;20613;-73
2022/12/29 05:33:06;;;;;;;22.15;20.15;;;;;;;4.42;75.48;95842.59;5096596;28;20204;-73
2022/12/29 05:35:33;;;;;;;22.50;20.42;;;;;;;4.43;75.32;95839.56;5096169;28;20265;-73
2022/12/29 05:37:59;;;;;;;22.15;20.08;;;;;;;4.46;75.50;95852.63;5097044;28;20197;-73
2022/12/29 05:40:26;;;;;;;20.60;18.70;;;;;;;4.48;75.76;95842.22;5096774;28;20671;-73
2022/12/29 05:42:53;;;;;;;20.30;18.58;;;;;;;4.54;75.47;95846.50;5096769;28;20223;-73
2022/12/29 05:45:20;;;;;;;21.08;19.13;;;;;;;4.56;75.53;95851.66;5096592;28;20203;-73
2022/12/29 05:47:47;;;;;;;20.63;18.83;;;;;;;4.60;75.56;95849.97;5096719;28;20597;-72
2022/12/29 05:50:15;;;;;;;19.83;18.05;;;;;;;4.62;75.37;95853.22;5096402;28;20192;-72
2022/12/29 05:52:41;;;;;;;22.27;20.15;;;;;;;4.68;75.15;95849.28;5096694;28;20220;-71
2022/12/29 05:55:09;;;;;;;22.08;20.17;;;;;;;4.71;75.12;95850.63;5095998;28;20202;-71
2022/12/29 05:57:36;;;;;;;22.33;20.30;;;;;;;4.73;74.76;95859.34;5095766;28;20197;-71
2022/12/29 06:00:03;;;;;;;22.35;20.42;;;;;;;4.74;75.21;95858.25;5096763;28;20655;-71
2022/12/29 06:02:33;;;;;;;20.38;18.58;;;;;;;4.70;75.00;95858.03;5096431;28;20204;-71
2022/12/29 06:05:00;;;;;;;20.73;18.77;;;;;;;4.69;74.93;95852.88;5096947;28;20184;-71
2022/12/29 06:07:29;;;;;;;20.88;18.98;;;;;;;4.69;75.21;95859.13;5095632;28;20199;-71
2022/12/29 06:09:56;;;;;;;21.27;19.38;;;;;;;4.70;75.46;95862.69;5095634;28;20223;-72
2022/12/29 06:12:22;;;;;;;20.73;18.90;;;;;;;4.73;75.43;95856.63;5097197;28;20184;-73
2022/12/29 06:14:49;;;;;;;20.63;18.83;;;;;;;4.76;75.47;95862.31;5095854;28;20199;-73
2022/12/29 06:17:16;;;;;;;20.20;18.50;;;;;;;4.81;75.06;95864.94;5096132;28;20207;-72
2022/12/29 06:19:43;;;;;;;20.48;18.67;;;;;;;4.85;74.82;95862.44;5096474;28;20177;-71
2022/12/29 06:22:11;;;;;;;21.48;19.58;;;;;;;4.89;75.05;95866.19;5096792;28;20346;-71
2022/12/29 06:24:40;;;;;;;22.02;20.05;;;;;;;4.96;75.25;95860.34;5096209;28;20658;-71
2022/12/29 06:27:07;;;;;;;22.60;20.60;;;;;;;4.94;75.13;95868.03;5095877;28;20203;-71
2022/12/29 06:29:36;;;;;;;22.50;20.40;;;;;;;4.96;74.73;95865.81;5095523;28;20200;-72
2022/12/29 06:32:02;;;;;;;21.15;19.13;;;;;;;4.96;75.03;95868.56;5096428;28;20245;-72
2022/12/29 06:34:29;;;;;;;22.92;20.92;;;;;;;4.97;74.99;95860.03;5096343;28;20249;-72
2022/12/29 06:36:56;;;;;;;21.85;19.95;;;;;;;5.00;75.20;95864.94;5096064;28;20196;-72
2022/12/29 06:39:23;;;;;;;21.55;19.65;;;;;;;5.00;74.90;95872.31;5094684;28;20550;-72
2022/12/29 06:41:54;;;;;;;22.38;20.48;;;;;;;5.04;74.97;95871.41;5095022;28;20208;-72
2022/12/29 06:44:21;;;;;;;21.45;19.50;;;;;;;5.07;74.54;95876.28;5096278;28;20192;-72
2022/12/29 06:46:48;;;;;;;21.98;19.98;;;;;;;5.06;74.44;95871.94;5095120;28;20192;-73
2022/12/29 06:49:18;;;;;;;20.60;18.83;;;;;;;5.06;74.21;95871.13;5095538;28;20228;-73
2022/12/29 06:51:45;;;;;;;21.42;19.48;;;;;;;5.11;74.36;95873.78;5094484;28;20258;-73
2022/12/29 06:54:12;;;;;;;20.92;18.98;;;;;;;5.17;74.43;95878.06;5095375;28;20208;-72
2022/12/29 06:56:39;;;;;;;21.20;19.35;;;;;;;5.19;74.19;95869.53;5095993;28;20195;-73
2022/12/29 06:59:08;;;;;;;20.25;18.45;;;;;;;5.21;73.67;95875.53;5095922;28;20195;-72
2022/12/29 07:01:35;;;;;;;22.40;20.50;;;;;;;5.24;73.74;95880.41;5096101;28;20221;-73
2022/12/29 07:04:02;;;;;;;23.75;21.55;;;;;;;5.28;73.93;95879.50;5095546;28;20192;-73
2022/12/29 07:06:30;;;;;;;25.30;23.08;;;;;;;5.29;73.58;95883.06;5095777;28;20200;-73
2022/12/29 07:08:58;;;;;;;24.35;22.25;;;;;;;5.33;73.80;95881.34;5095084;28;20196;-72
2022/12/29 07:11:25;;;;;;;26.02;23.73;;;;;;;5.40;74.04;95883.69;5095969;28;20189;-73
2022/12/29 07:13:52;;;;;;;22.30;20.30;;;;;;;5.45;73.47;95884.44;5094909;28;20200;-73
2022/12/29 07:16:21;;;;;;;20.73;18.83;;;;;;;5.49;73.45;95873.69;5095905;28;20441;-73
2022/12/29 07:18:48;;;;;;;20.77;18.98;;;;;;;5.50;73.31;95878.84;5095782;28;20208;-73
2022/12/29 07:21:15;;;;;;;20.20;18.40;;;;;;;5.58;72.85;95879.28;5094753;28;20216;-73
2022/12/29 07:23:42;;;;;;;19.98;18.25;;;;;;;5.59;72.73;95880.91;5093892;28;20207;-73
2022/12/29 07:26:11;;;;;;;20.17;18.48;;;;;;;5.66;72.64;95873.91;5094437;28;20200;-72
2022/12/29 07:28:39;;;;;;;19.15;17.30;;;;;;;5.74;72.31;95875.97;5095445;28;20199;-73
2022/12/29 07:31:06;;;;;;;18.90;17.30;;;;;;;5.79;72.16;95881.34;5095020;28;20220;-73
2022/12/29 07:33:34;;;;;;;19.17;17.48;;;;;;;5.87;72.39;95884.50;5094983;28;20181;-73
2022/12/29 07:36:01;;;;;;;18.90;17.30;;;;;;;5.84;71.83;95883.16;5094967;28;20593;-73
2022/12/29 07:38:28;;;;;;;19.33;17.63;;;;;;;5.80;71.67;95877.47;5094691;28;20541;-73
2022/12/29 07:40:59;;;;;;;19.50;17.63;;;;;;;5.80;71.67;95877.47;5094965;28;20232;-73
2022/12/29 07:43:26;;;;;;;20.33;18.63;;;;;;;5.81;71.82;95881.06;5095257;28;20184;-73
2022/12/29 07:45:53;;;;;;;19.23;17.55;;;;;;;5.88;71.69;95880.63;5094892;28;20185;-74
2022/12/29 07:48:22;;;;;;;20.00;18.20;;;;;;;5.91;71.53;95882.75;5094873;28;20234;-73
2022/12/29 07:50:53;;;;;;;19.55;17.85;;;;;;;5.91;71.83;95883.56;5094739;28;20189;-73
2022/12/29 07:53:20;;;;;;;19.63;17.83;;;;;;;5.92;71.30;95878.91;5098427;28;20203;-72
2022/12/29 07:55:46;;;;;;;20.60;18.80;;;;;;;5.95;71.90;95889.28;5099311;28;20261;-72
2022/12/29 07:58:15;;;;;;;19.55;17.85;;;;;;;5.96;71.70;95883.53;5098701;28;20206;-71
2022/12/29 08:00:41;;;;;;;19.17;17.48;;;;;;;5.99;71.36;95890.31;5099143;28;20220;-72
2022/12/29 08:03:09;;;;;;;18.48;16.77;;;;;;;5.95;70.98;95894.75;5098525;28;20242;-72
2022/12/29 08:05:38;;;;;;;16.52;14.90;;;;;;;6.09;71.91;95897.50;5098768;28;20263;-72
2022/12/29 08:08:07;;;;;;;18.02;16.52;;;;;;;6.25;71.67;95896.91;5099287;28;20181;-71
2022/12/29 08:10:34;;;;;;;20.02;18.17;;;;;;;6.34;71.13;95896.19;5098244;28;20196;-72
2022/12/29 08:13:01;;;;;;;19.35;17.65;;;;;;;6.29;71.94;95901.78;5098213;28;20235;-72
2022/12/29 08:15:28;;;;;;;19.50;17.60;;;;;;;6.26;71.74;95890.31;5098261;28;20509;-72
2022/12/29 08:17:55;;;;;;;20.05;18.25;;;;;;;6.17;71.29;95897.63;5099181;28;20188;-72
2022/12/29 08:20:21;;;;;;;20.05;18.35;;;;;;;6.14;72.05;95895.50;5098504;28;20218;-72
2022/12/29 08:22:49;;;;;;;19.83;18.13;;;;;;;6.10;71.23;95897.22;5098464;28;20193;-72
2022/12/29 08:25:19;;;;;;;19.67;18.08;;;;;;;6.13;71.64;95890.31;5098821;28;20583;-72
2022/12/29 08:27:46;;;;;;;19.25;17.65;;;;;;;6.23;72.75;95892.84;5098717;28;20619;-72
2022/12/29 08:30:14;;;;;;;20.02;18.05;;;;;;;6.36;71.90;95889.28;5098705;28;20262;-72
2022/12/29 08:32:41;;;;;;;19.90;18.15;;;;;;;6.43;72.07;95897.09;5098194;28;20228;-72
2022/12/29 08:35:08;;;;;;;19.73;17.98;;;;;;;6.46;71.62;95888.25;5098297;28;20200;-72
2022/12/29 08:37:35;;;;;;;19.60;18.00;;;;;;;6.55;71.95;95886.44;5098086;28;20192;-72
2022/12/29 08:40:03;;;;;;;20.40;18.55;;;;;;;6.66;71.21;95892.50;5098555;28;20260;-72
2022/12/29 08:42:31;;;;;;;19.55;17.85;;;;;;;6.77;70.89;95891.16;5098369;28;20208;-72
2022/12/29 08:44:58;;;;;;;19.40;17.70;;;;;;;6.78;70.16;95886.47;5097887;28;20254;-72
2022/12/29 08:47:25;;;;;;;19.38;17.58;;;;;;;6.89;70.22;95894.16;5097424;28;20209;-72
2022/12/29 08:49:52;;;;;;;18.40;16.80;;;;;;;6.95;70.29;95897.59;5097427;28;20197;-72
2022/12/29 08:52:19;;;;;;;17.92;16.42;;;;;;;7.00;69.86;95889.25;5097821;28;20208;-72
2022/12/29 08:54:45;;;;;;;18.27;16.67;;;;;;;7.12;71.04;95888.72;5098600;28;20180;-72
2022/12/29 08:57:12;;;;;;;20.15;18.38;;;;;;;7.24;70.20;95881.53;5098429;28;20196;-72
2022/12/29 08:59:40;;;;;;;19.55;17.85;;;;;;;7.35;70.69;95882.09;5098582;28;20261;-72
2022/12/29 09:02:11;;;;;;;18.63;16.92;;;;;;;7.44;69.90;95879.41;5097110;28;20224;-72
2022/12/29 09:04:38;;;;;;;16.83;15.43;;;;;;;7.60;69.99;95877.09;5097887;28;20656;-72
2022/12/29 09:07:05;;;;;;;16.98;15.57;;;;;;;7.71;69.92;95876.50;5097410;28;20640;-72
2022/12/29 09:09:32;;;;;;;17.80;16.30;;;;;;;7.85;69.76;95872.88;5096927;28;20196;-72
2022/12/29 09:11:59;;;;;;;17.63;16.02;;;;;;;7.95;67.53;95867.06;5097202;28;20640;-72
2022/12/29 09:14:26;;;;;;;16.50;15.10;;;;;;;8.01;67.38;95870.50;5097720;28;20301;-72
2022/12/29 09:19:39;;;;;;;18.20;16.60;;;;;;;8.31;68.09;95860.56;5097715;28;20231;-72
2022/12/29 09:22:05;;;;;;;18.15;16.45;;;;;;;8.37;67.22;95862.91;5098363;28;20216;-72
2022/12/29 09:24:32;;;;;;;18.35;16.77;;;;;;;8.40;67.00;95859.50;5097592;28;20208;-72
2022/12/29 09:26:59;;;;;;;16.85;15.35;;;;;;;8.53;66.79;95859.69;5096715;28;20596;-72
2022/12/29 09:29:26;;;;;;;17.92;16.42;;;;;;;8.58;66.33;95862.31;5096941;28;20200;-72
2022/12/29 09:31:54;;;;;;;17.63;16.05;;;;;;;8.73;67.14;95850.84;5096737;28;20197;-72
2022/12/29 09:34:21;;;;;;;18.15;16.45;;;;;;;8.84;65.82;95849.38;5096259;28;20652;-71
2022/12/29 09:36:47;;;;;;;17.90;16.33;;;;;;;8.94;65.89;95837.25;5096623;28;20200;-72
2022/12/29 09:39:14;;;;;;;17.15;15.65;;;;;;;8.94;65.23;95840.00;5096361;28;20243;-71
2022/12/29 09:41:49;;;;;;;19.42;17.83;;;;;;;8.87;65.25;95843.25;5097196;28;20212;-72
2022/12/29 09:44:21;;;;;;;16.85;15.35;;;;;;;8.79;65.10;95835.00;5098305;28;20180;-71
2022/12/29 09:46:50;;;;;;;17.08;15.57;;;;;;;8.70;65.06;95837.72;5098352;28;20184;-72
2022/12/29 09:49:25;;;;;;;18.10;16.45;;;;;;;8.78;65.79;95841.59;5097741;28;20169;-72
2022/12/29 09:51:55;;;;;;;18.13;16.52;;;;;;;8.80;65.30;95823.66;5097264;28;20601;-72
2022/12/29 09:54:34;;;;;;;18.63;17.02;;;;;;;8.76;65.51;95822.69;5097573;28;20265;-72
2022/12/29 09:57:01;;;;;;;19.92;18.13;;;;;;;8.70;65.42;95821.22;5096903;28;20208;-72
2022/12/29 09:59:39;;;;;;;19.40;17.80;;;;;;;8.65;65.81;95822.19;5096865;28;20169;-72
2022/12/29 10:02:17;;;;;;;21.10;19.00;;;;;;;8.68;65.37;95818.81;5096597;28;20224;-72
2022/12/29 10:04:45;;;;;;;20.15;18.38;;;;;;;8.64;65.44;95812.34;5095843;28;20200;-72
2022/12/29 10:07:16;;;;;;;20.60;18.70;;;;;;;8.71;65.22;95806.34;5095821;28;20200;-72
2022/12/29 10:09:48;;;;;;;21.67;19.58;;;;;;;8.77;65.47;95805.06;5096797;28;20201;-72
2022/12/29 10:12:25;;;;;;;19.98;18.17;;;;;;;8.84;64.87;95810.88;5095864;28;20265;-72
2022/12/29 10:14:59;;;;;;;21.00;19.00;;;;;;;8.91;65.02;95807.66;5078055;28;20230;-72
2022/12/29 10:17:33;;;;;;;21.10;19.10;;;;;;;8.92;65.23;95801.81;5095691;28;20262;-72
2022/12/29 10:20:15;;;;;;;21.25;19.23;;;;;;;8.89;65.14;95799.69;5095655;28;20215;-72
2022/12/29 10:22:53;;;;;;;21.35;19.23;;;;;;;8.87;65.42;95793.72;5095703;28;20223;-72
2022/12/29 10:25:21;;;;;;;21.42;19.42;;;;;;;8.83;64.98;95798.25;5095535;28;20627;-72
2022/12/29 10:27:48;;;;;;;22.55;20.33;;;;;;;8.82;65.45;95788.41;5095555;28;20218;-72
2022/12/29 10:30:16;;;;;;;21.45;19.25;;;;;;;8.87;65.14;95784.66;5095761;28;20566;-72
2022/12/29 10:32:47;;;;;;;22.58;20.27;;;;;;;8.91;64.88;95785.63;5095771;28;20253;-72
2022/12/29 10:35:19;;;;;;;25.33;22.85;;;;;;;8.84;64.58;95788.06;5096488;28;20272;-71
2022/12/29 10:37:50;;;;;;;24.73;22.52;;;;;;;8.79;65.05;95786.28;5095484;28;20246;-72
2022/12/29 10:40:21;;;;;;;24.33;22.13;;;;;;;8.85;65.61;95778.66;5094944;28;20232;-72
2022/12/29 10:42:52;;;;;;;24.13;21.75;;;;;;;8.90;64.84;95776.56;5096104;28;20297;-72
2022/12/29 10:45:19;;;;;;;24.98;22.38;;;;;;;8.91;65.24;95771.88;5096297;28;20184;-72
2022/12/29 10:47:53;;;;;;;23.70;21.42;;;;;;;8.99;65.24;95768.31;5095093;28;20202;-72
2022/12/29 10:50:22;;;;;;;24.98;22.63;;;;;;;8.95;64.75;95767.34;5096136;28;20554;-72
2022/12/29 10:52:49;;;;;;;27.02;24.55;;;;;;;8.95;64.06;95764.59;5096126;28;20192;-72
2022/12/29 10:55:19;;;;;;;27.50;24.80;;;;;;;8.93;64.45;95761.34;5095011;28;20206;-72
2022/12/29 10:57:47;;;;;;;25.25;22.90;;;;;;;9.01;64.95;95757.78;5096147;28;20193;-72
2022/12/29 11:00:16;;;;;;;23.80;21.58;;;;;;;9.05;65.49;95753.25;5095914;28;20201;-72
2022/12/29 11:03:11;;;;;;;23.52;21.23;;;;;;;9.06;64.88;95751.31;5095058;28;20215;-72
2022/12/29 11:05:43;;;;;;;24.48;22.08;;;;;;;9.07;65.15;95750.97;5095258;28;20199;-72
2022/12/29 11:08:12;;;;;;;26.77;24.08;;;;;;;9.12;64.60;95748.06;5094895;28;20196;-72
2022/12/29 11:10:40;;;;;;;25.95;23.35;;;;;;;9.20;64.68;95737.34;5095085;28;20189;-72
2022/12/29 11:13:13;;;;;;;25.17;22.77;;;;;;;9.29;65.43;95744.44;5095057;28;20196;-72
2022/12/29 11:15:41;;;;;;;25.70;23.33;;;;;;;9.47;64.54;95736.94;5094720;28;20193;-73
2022/12/29 11:18:21;;;;;;;28.45;25.73;;;;;;;9.56;62.84;95731.41;5096182;28;20526;-72
2022/12/29 11:20:50;;;;;;;29.65;26.65;;;;;;;9.82;63.45;95728.53;5095270;28;20223;-72
2022/12/29 11:23:31;;;;;;;30.85;27.85;;;;;;;10.23;62.39;95727.78;5095380;28;20218;-72
2022/12/29 11:26:19;;;;;;;30.52;27.42;;;;;;;10.72;62.95;95728.13;5094109;28;20204;-72
2022/12/29 11:28:47;;;;;;;29.15;26.20;;;;;;;11.14;61.78;95721.72;5095294;28;20192;-72
2022/12/29 11:31:17;;;;;;;27.88;25.13;;;;;;;11.64;61.40;95727.00;5095509;28;20192;-72
2022/12/29 11:33:44;;;;;;;27.45;24.75;;;;;;;12.19;58.88;95722.06;5095259;28;20199;-72
2022/12/29 11:36:15;;;;;;;28.75;25.88;;;;;;;13.01;57.39;95719.78;5094251;28;20195;-72
2022/12/29 11:38:43;;;;;;;25.95;23.40;;;;;;;13.30;54.69;95717.03;5094152;28;20200;-72
2022/12/29 11:41:13;;;;;;;24.67;22.27;;;;;;;13.36;52.88;95719.19;5093756;28;20240;-72
2022/12/29 11:43:42;;;;;;;24.38;21.95;;;;;;;13.02;53.70;95715.84;5094320;28;20306;-72
2022/12/29 11:46:16;;;;;;;22.48;20.33;;;;;;;13.00;53.53;95706.31;5094591;28;20200;-72
2022/12/29 11:48:43;;;;;;;22.70;20.40;;;;;;;12.74;53.32;95710.31;5094882;28;20203;-72
2022/12/29 11:51:11;;;;;;;23.52;21.23;;;;;;;12.28;54.24;95711.69;5094124;28;20287;-72
2022/12/29 11:53:43;;;;;;;22.75;20.35;;;;;;;11.74;54.96;95718.25;5095180;28;20192;-72
2022/12/29 11:56:15;;;;;;;23.63;21.20;;;;;;;11.59;56.23;95718.94;5095432;28;20184;-72
2022/12/29 11:58:42;;;;;;;23.67;21.30;;;;;;;11.68;56.37;95708.56;5095246;28;20214;-72
2022/12/29 12:01:16;;;;;;;23.52;21.23;;;;;;;11.34;56.77;95709.81;5095305;28;20204;-72
2022/12/29 12:03:47;;;;;;;22.60;20.40;;;;;;;11.09;57.20;95706.16;5094202;28;20215;-72
2022/12/29 12:06:18;;;;;;;23.77;21.35;;;;;;;10.91;58.31;95705.53;5095590;28;20196;-72
2022/12/29 12:08:50;;;;;;;23.67;21.27;;;;;;;10.78;57.66;95701.94;5094147;28;20673;-72
2022/12/29 12:11:20;;;;;;;22.73;20.60;;;;;;;10.73;58.28;95706.84;5093881;28;20192;-72
2022/12/29 12:13:56;;;;;;;23.20;20.80;;;;;;;10.64;59.51;95698.66;5094068;28;20220;-72
2022/12/29 12:16:27;;;;;;;23.67;21.38;;;;;;;10.56;59.81;95702.28;5093715;28;20203;-72